Time;durP1;ratioP1;P1;durP2;ratioP2;P2;SDS_P1;SDS_P2;PMS_P1;PMS_P2;Temp;Humidity;BMP_temperature;BMP_pressure;BME280_temperature;BME280_humidity;BME280_pressure;Samples;Min_cycle;Max_cycle;Signal;HPM_P1;HPM_P2
2023/03/29 00:02:09;;;;;;;;;;;;;;;4.70;51.37;98448.13;5083363;28;20381;-56
2023/03/29 00:04:37;;;;;;;;;;;;;;;4.70;51.24;98446.22;5081903;28;19928;-60
2023/03/29 00:07:06;;;;;;;;;;;;;;;4.69;51.16;98441.94;5087216;28;19927;-56
2023/03/29 00:09:33;;;;;;;;;;;;;;;4.71;51.66;98450.53;5090337;28;19954;-57
2023/03/29 00:12:04;;;;;;;;;;;;;;;4.82;50.60;98454.09;5089459;28;19924;-56
2023/03/29 00:14:34;;;;;;;;;;;;;;;4.87;51.04;98453.31;5086284;28;19924;-56
2023/03/29 00:17:02;;;;;;;;;;;;;;;4.88;50.05;98450.38;5080439;28;19939;-56
2023/03/29 00:19:35;;;;;;;;;;;;;;;4.84;50.50;98448.44;5087422;28;20454;-59
2023/03/29 00:22:04;;;;;;;;;;;;;;;4.87;50.05;98448.75;5089655;28;19931;-56
2023/03/29 00:24:32;;;;;;;;;;;;;;;4.81;50.53;98455.19;5085855;28;19951;-56
2023/03/29 00:27:00;;;;;;;;;;;;;;;4.85;51.00;98455.47;5087873;28;19993;-58
2023/03/29 00:29:28;;;;;;;;;;;;;;;4.86;50.91;98441.75;5086199;28;19931;-57
2023/03/29 00:31:56;;;;;;;;;;;;;;;4.82;50.87;98442.53;5077666;28;20297;-56
2023/03/29 00:34:25;;;;;;;;;;;;;;;4.80;51.11;98442.00;5087198;28;20007;-56
2023/03/29 00:36:56;;;;;;;;;;;;;;;4.73;51.54;98434.13;5089657;28;19938;-57
2023/03/29 00:39:25;;;;;;;;;;;;;;;4.65;52.25;98416.59;5091736;28;19925;-56
2023/03/29 00:41:55;;;;;;;;;;;;;;;4.78;52.32;98423.38;5089522;28;19923;-57
2023/03/29 00:44:41;;;;;;;;;;;;;;;4.84;52.68;98416.16;5087719;28;19928;-57
2023/03/29 00:47:09;;;;;;;;;;;;;;;4.80;52.86;98407.00;5082673;28;19924;-58
2023/03/29 00:49:38;;;;;;;;;;;;;;;4.86;52.65;98401.38;5089459;28;19969;-59
2023/03/29 00:52:08;;;;;;;;;;;;;;;4.81;52.98;98401.34;5088698;28;19928;-59
2023/03/29 00:54:36;;;;;;;;;;;;;;;4.86;52.82;98393.28;5078276;28;20045;-56
2023/03/29 00:57:05;;;;;;;;;;;;;;;4.88;53.34;98398.41;5091060;28;19993;-56
2023/03/29 00:59:34;;;;;;;;;;;;;;;4.84;53.29;98397.31;5085032;28;19978;-55
2023/03/29 01:02:04;;;;;;;;;;;;;;;4.70;52.59;98389.72;5095956;28;19972;-56
2023/03/29 01:04:32;;;;;;;;;;;;;;;4.77;53.64;98383.28;5093974;28;19925;-56
2023/03/29 01:07:02;;;;;;;;;;;;;;;4.73;53.94;98382.97;5085088;28;19924;-56
2023/03/29 01:09:32;;;;;;;;;;;;;;;4.81;53.77;98379.81;5088743;28;19928;-57
2023/03/29 01:12:02;;;;;;;;;;;;;;;4.78;54.92;98374.13;5093940;28;19935;-56
2023/03/29 01:14:34;;;;;;;;;;;;;;;4.81;54.42;98362.84;5089257;28;19928;-58
2023/03/29 01:17:02;;;;;;;;;;;;;;;4.78;54.37;98352.59;5084942;28;20369;-56
2023/03/29 01:19:32;;;;;;;;;;;;;;;4.83;54.16;98352.63;5089483;28;19974;-56
2023/03/29 01:22:03;;;;;;;;;;;;;;;4.75;54.75;98347.75;5100401;28;19928;-56
2023/03/29 01:24:46;;;;;;;;;;;;;;;4.81;54.03;98341.31;5102330;28;19928;-56
2023/03/29 01:27:17;;;;;;;;;;;;;;;4.80;53.89;98339.69;5087600;28;19963;-56
2023/03/29 01:29:48;;;;;;;;;;;;;;;4.67;54.71;98331.00;5093476;28;20377;-56
2023/03/29 01:32:17;;;;;;;;;;;;;;;4.65;54.51;98337.75;5091804;28;19924;-57
2023/03/29 01:34:46;;;;;;;;;;;;;;;4.56;54.50;98337.44;5074468;28;19974;-57
2023/03/29 01:37:16;;;;;;;;;;;;;;;4.53;54.75;98334.44;5080430;28;19924;-56
2023/03/29 01:39:44;;;;;;;;;;;;;;;4.62;54.53;98331.00;5084482;28;19925;-56
2023/03/29 01:42:17;;;;;;;;;;;;;;;4.51;55.05;98315.88;5086567;28;19932;-56
2023/03/29 01:44:49;;;;;;;;;;;;;;;4.45;55.61;98330.38;5086149;28;20401;-57
2023/03/29 01:47:19;;;;;;;;;;;;;;;4.54;55.91;98325.31;5079563;28;19924;-58
2023/03/29 01:49:49;;;;;;;;;;;;;;;4.60;56.85;98316.19;5089813;28;19963;-56
2023/03/29 01:52:17;;;;;;;;;;;;;;;4.56;57.81;98318.59;5089392;28;19932;-56
2023/03/29 01:54:47;;;;;;;;;;;;;;;4.64;57.63;98318.09;5083297;28;19924;-56
2023/03/29 01:57:15;;;;;;;;;;;;;;;4.67;58.43;98308.69;5085192;28;20351;-56
2023/03/29 01:59:43;;;;;;;;;;;;;;;4.68;58.20;98313.78;5086219;28;20278;-56
2023/03/29 02:02:14;;;;;;;;;;;;;;;4.75;58.65;98305.50;5078932;28;19924;-56
2023/03/29 02:04:46;;;;;;;;;;;;;;;4.72;59.10;98312.19;5090287;28;20431;-56
2023/03/29 02:07:15;;;;;;;;;;;;;;;4.73;59.43;98313.81;5089028;28;19928;-57
2023/03/29 02:09:42;;;;;;;;;;;;;;;4.73;59.25;98307.63;5088154;28;19924;-56
2023/03/29 02:12:10;;;;;;;;;;;;;;;4.71;60.19;98315.97;5086467;28;19931;-56
2023/03/29 02:14:39;;;;;;;;;;;;;;;4.79;60.59;98305.75;5081639;28;19928;-56
2023/03/29 02:17:17;;;;;;;;;;;;;;;4.76;60.16;98309.00;5084191;28;19924;-57
2023/03/29 02:19:48;;;;;;;;;;;;;;;4.76;61.53;98300.91;5085218;28;19981;-56
2023/03/29 02:22:18;;;;;;;;;;;;;;;4.87;62.26;98297.19;5102752;28;19928;-56
2023/03/29 02:24:47;;;;;;;;;;;;;;;4.80;62.77;98302.00;5079148;28;19925;-56
2023/03/29 02:27:14;;;;;;;;;;;;;;;4.79;62.67;98300.38;5085608;28;19924;-56
2023/03/29 02:29:45;;;;;;;;;;;;;;;4.86;62.96;98300.94;5086488;28;19924;-56
2023/03/29 02:32:16;;;;;;;;;;;;;;;4.86;64.16;98300.94;5085327;28;19993;-56
2023/03/29 02:34:46;;;;;;;;;;;;;;;4.80;64.30;98296.63;5093492;28;19959;-57
2023/03/29 02:37:16;;;;;;;;;;;;;;;4.75;64.63;98296.63;5093510;28;19924;-57
2023/03/29 02:39:46;;;;;;;;;;;;;;;4.82;64.53;98289.91;5092817;28;19931;-57
2023/03/29 02:42:15;;;;;;;;;;;;;;;4.68;64.55;98304.91;5092743;28;19932;-57
2023/03/29 02:44:43;;;;;;;;;;;;;;;4.68;64.34;98297.63;5088387;28;19962;-56
2023/03/29 02:47:13;;;;;;;;;;;;;;;4.71;65.31;98290.94;5087585;28;19924;-56
2023/03/29 02:49:42;;;;;;;;;;;;;;;4.63;65.97;98286.84;5091167;28;20396;-57
2023/03/29 02:52:11;;;;;;;;;;;;;;;4.69;66.41;98285.81;5099207;28;20554;-58
2023/03/29 02:54:42;;;;;;;;;;;;;;;4.68;66.75;98283.38;5087344;28;19924;-56
2023/03/29 02:57:10;;;;;;;;;;;;;;;4.72;66.70;98279.91;5092082;28;19924;-59
2023/03/29 02:59:39;;;;;;;;;;;;;;;4.69;66.96;98280.44;5091987;28;19928;-59
2023/03/29 03:02:07;;;;;;;;;;;;;;;4.65;67.33;98273.16;5085410;28;19924;-56
2023/03/29 03:04:35;;;;;;;;;;;;;;;4.62;67.24;98263.72;5108429;28;20032;-57
2023/03/29 03:07:05;;;;;;;;;;;;;;;4.55;68.08;98259.66;5091561;28;20450;-58
2023/03/29 03:09:33;;;;;;;;;;;;;;;4.65;68.37;98257.81;5092420;28;19935;-56
2023/03/29 03:12:01;;;;;;;;;;;;;;;4.50;68.78;98252.38;5091702;28;20007;-56
2023/03/29 03:14:29;;;;;;;;;;;;;;;4.56;68.81;98245.94;5091994;28;19947;-56
2023/03/29 03:16:59;;;;;;;;;;;;;;;4.54;68.80;98256.16;5086700;28;19924;-56
2023/03/29 03:19:30;;;;;;;;;;;;;;;4.53;69.27;98254.56;5090729;28;20353;-56
2023/03/29 03:21:58;;;;;;;;;;;;;;;4.64;68.89;98252.72;5100875;28;19970;-56
2023/03/29 03:24:28;;;;;;;;;;;;;;;4.60;69.52;98244.34;5092316;28;20335;-56
2023/03/29 03:26:56;;;;;;;;;;;;;;;4.52;69.99;98260.97;5090169;28;19974;-57
2023/03/29 03:29:24;;;;;;;;;;;;;;;4.65;69.70;98260.50;5092191;28;20438;-57
2023/03/29 03:31:58;;;;;;;;;;;;;;;4.63;70.22;98257.25;5085196;28;19928;-57
2023/03/29 03:34:44;;;;;;;;;;;;;;;4.68;69.97;98249.19;5088346;28;19931;-56
2023/03/29 03:37:12;;;;;;;;;;;;;;;4.60;70.27;98249.72;5091259;28;19928;-56
2023/03/29 03:39:42;;;;;;;;;;;;;;;4.61;70.47;98243.25;5081833;28;19924;-57
2023/03/29 03:42:10;;;;;;;;;;;;;;;4.49;70.89;98240.00;5102141;28;19931;-57
2023/03/29 03:44:43;;;;;;;;;;;;;;;4.37;71.49;98240.22;5089033;28;19924;-56
2023/03/29 03:47:28;;;;;;;;;;;;;;;4.41;71.41;98248.56;5087259;28;20437;-56
2023/03/29 03:50:00;;;;;;;;;;;;;;;4.51;71.88;98239.72;5087776;28;19928;-56
2023/03/29 03:52:28;;;;;;;;;;;;;;;4.54;71.41;98231.94;5088949;28;19970;-56
2023/03/29 03:55:01;;;;;;;;;;;;;;;4.41;72.46;98227.84;5091486;28;20385;-58
2023/03/29 03:57:56;;;;;;;;;;;;;;;4.33;72.61;98230.25;5085951;28;21033;-56
2023/03/29 04:00:24;;;;;;;;;;;;;;;4.29;72.85;98215.72;5085344;28;19931;-59
2023/03/29 04:03:08;;;;;;;;;;;;;;;4.26;72.93;98216.22;5104781;28;19933;-56
2023/03/29 04:05:38;;;;;;;;;;;;;;;4.12;73.66;98211.34;5106502;28;19943;-56
2023/03/29 04:08:07;;;;;;;;;;;;;;;4.15;73.74;98205.41;5090479;28;19931;-57
2023/03/29 04:10:52;;;;;;;;;;;;;;;4.14;73.64;98209.19;5090657;28;20412;-56
2023/03/29 04:13:28;;;;;;;;;;;;;;;4.19;73.78;98211.91;5072209;28;19924;-56
2023/03/29 04:16:15;;;;;;;;;;;;;;;4.21;73.92;98208.97;5077493;28;19931;-56
2023/03/29 04:18:43;;;;;;;;;;;;;;;4.20;73.88;98210.00;5089901;28;19934;-56
2023/03/29 04:21:12;;;;;;;;;;;;;;;4.06;74.72;98207.00;5089920;28;19959;-57
2023/03/29 04:23:41;;;;;;;;;;;;;;;4.04;74.91;98203.75;5090479;28;19932;-56
2023/03/29 04:26:10;;;;;;;;;;;;;;;4.19;74.12;98206.53;5105489;28;19924;-56
2023/03/29 04:28:46;;;;;;;;;;;;;;;4.26;73.80;98195.53;5107263;28;19932;-56
2023/03/29 04:31:19;;;;;;;;;;;;;;;4.33;73.79;98201.47;5082593;28;20019;-56
2023/03/29 04:34:02;;;;;;;;;;;;;;;4.28;74.09;98204.16;5083993;28;20020;-56
2023/03/29 04:36:34;;;;;;;;;;;;;;;4.42;73.88;98189.13;5095778;28;20341;-57
2023/03/29 04:39:06;;;;;;;;;;;;;;;4.43;73.78;98200.72;5088834;28;20396;-57
2023/03/29 04:41:36;;;;;;;;;;;;;;;4.35;73.89;98201.19;5089348;28;20309;-60
2023/03/29 04:44:17;;;;;;;;;;;;;;;4.46;73.17;98192.91;5084361;28;19925;-56
2023/03/29 04:46:45;;;;;;;;;;;;;;;4.49;73.35;98193.47;5085838;28;19928;-55
2023/03/29 04:49:38;;;;;;;;;;;;;;;4.46;73.93;98184.81;5085899;28;20001;-56
2023/03/29 04:52:12;;;;;;;;;;;;;;;4.34;73.57;98178.06;5088106;28;19932;-57
2023/03/29 04:54:40;;;;;;;;;;;;;;;4.46;73.49;98179.44;5087110;28;19973;-57
2023/03/29 04:57:20;;;;;;;;;;;;;;;4.36;73.50;98173.22;5090168;28;19967;-56
2023/03/29 05:00:14;;;;;;;;;;;;;;;4.52;72.90;98184.84;5083363;28;19935;-57
2023/03/29 05:02:58;;;;;;;;;;;;;;;4.46;73.00;98184.03;5101729;28;19949;-56
2023/03/29 05:05:29;;;;;;;;;;;;;;;4.38;72.65;98181.84;5089712;28;19941;-56
2023/03/29 05:08:00;;;;;;;;;;;;;;;4.45;73.25;98177.84;5086630;28;19969;-56
2023/03/29 05:10:36;;;;;;;;;;;;;;;4.43;72.73;98180.00;5086106;28;19924;-59
2023/03/29 05:13:06;;;;;;;;;;;;;;;4.50;72.54;98179.72;5085985;28;19924;-57
2023/03/29 05:15:33;;;;;;;;;;;;;;;4.52;72.34;98182.94;5086602;28;19930;-56
2023/03/29 05:18:02;;;;;;;;;;;;;;;4.55;72.48;98179.75;5082882;28;20012;-57
2023/03/29 05:20:31;;;;;;;;;;;;;;;4.62;71.89;98174.09;5087759;28;19931;-56
2023/03/29 05:23:00;;;;;;;;;;;;;;;4.55;72.17;98166.28;5085369;28;19924;-56
2023/03/29 05:25:47;;;;;;;;;;;;;;;4.66;71.42;98167.94;5080916;28;20021;-55
2023/03/29 05:28:17;;;;;;;;;;;;;;;4.65;71.59;98171.69;5087658;28;19943;-55
2023/03/29 05:30:45;;;;;;;;;;;;;;;4.67;71.18;98169.53;5086208;28;19961;-56
2023/03/29 05:33:20;;;;;;;;;;;;;;;4.69;71.02;98163.91;5086641;28;19946;-56
2023/03/29 05:35:47;;;;;;;;;;;;;;;4.70;71.07;98169.03;5098054;28;20284;-56
2023/03/29 05:38:15;;;;;;;;;;;;;;;4.54;71.11;98170.06;5106527;28;19950;-56
2023/03/29 05:40:43;;;;;;;;;;;;;;;4.61;70.75;98157.16;5084258;28;19924;-55
2023/03/29 05:43:31;;;;;;;;;;;;;;;4.73;70.60;98157.69;5084954;28;19958;-56
2023/03/29 05:46:00;;;;;;;;;;;;;;;4.76;70.22;98151.00;5082343;28;20343;-56
2023/03/29 05:48:29;;;;;;;;;;;;;;;4.71;70.12;98156.38;5088301;28;20293;-59
2023/03/29 05:50:57;;;;;;;;;;;;;;;4.73;70.85;98156.91;5088398;28;19932;-60
2023/03/29 05:53:28;;;;;;;;;;;;;;;4.59;70.62;98162.00;5087048;28;19963;-55
2023/03/29 05:55:56;;;;;;;;;;;;;;;4.56;71.23;98159.84;5089407;28;19928;-56
2023/03/29 05:58:27;;;;;;;;;;;;;;;4.53;70.88;98152.31;5087216;28;19937;-56
2023/03/29 06:00:56;;;;;;;;;;;;;;;4.69;70.56;98151.25;5083201;28;19928;-56
2023/03/29 06:03:50;;;;;;;;;;;;;;;4.53;71.14;98157.69;5090949;28;20285;-55
2023/03/29 06:06:21;;;;;;;;;;;;;;;4.78;70.93;98156.09;5093942;28;19935;-55
2023/03/29 06:08:49;;;;;;;;;;;;;;;4.99;70.26;98153.16;5103873;27;19951;-57
2023/03/29 06:11:31;;;;;;;;;;;;;;;5.22;69.60;98156.41;5094378;28;20388;-56
2023/03/29 06:14:13;;;;;;;;;;;;;;;5.02;70.17;98151.00;5089950;28;20300;-56
2023/03/29 06:16:48;;;;;;;;;;;;;;;5.19;69.47;98152.34;5061605;28;19932;-56
2023/03/29 06:19:17;;;;;;;;;;;;;;;5.31;69.73;98164.72;5089338;28;20222;-57
2023/03/29 06:21:48;;;;;;;;;;;;;;;5.28;69.30;98159.91;5090892;28;19938;-57
2023/03/29 06:24:23;;;;;;;;;;;;;;;5.26;69.53;98160.94;5092428;28;19928;-56
2023/03/29 06:26:59;;;;;;;;;;;;;;;5.41;68.76;98162.03;5088360;28;20462;-56
2023/03/29 06:29:27;;;;;;;;;;;;;;;5.48;68.77;98165.25;5095476;28;19924;-56
2023/03/29 06:31:56;;;;;;;;;;;;;;;5.42;69.09;98158.25;5083647;28;20392;-58
2023/03/29 06:34:45;;;;;;;;;;;;;;;5.51;69.11;98164.72;5097516;28;20397;-56
2023/03/29 06:37:53;;;;;;;;;;;;;;;5.52;68.89;98166.31;5076750;28;19924;-56
2023/03/29 06:40:30;;;;;;;;;;;;;;;5.69;68.33;98166.81;5089546;28;19928;-57
2023/03/29 06:42:59;;;;;;;;;;;;;;;5.63;68.58;98165.22;5090249;28;19928;-56
2023/03/29 06:45:47;;;;;;;;;;;;;;;5.52;68.62;98163.63;5082820;28;19928;-55
2023/03/29 06:48:26;;;;;;;;;;;;;;;5.73;67.91;98165.19;5091907;28;19932;-58
2023/03/29 06:50:55;;;;;;;;;;;;;;;5.69;68.72;98164.13;5091716;28;19924;-56
2023/03/29 06:53:26;;;;;;;;;;;;;;;5.69;68.36;98174.09;5091105;28;19924;-57
2023/03/29 06:55:59;;;;;;;;;;;;;;;5.75;67.75;98167.63;5085517;28;20503;-57
2023/03/29 06:58:54;;;;;;;;;;;;;;;5.86;67.95;98173.78;5083549;28;20331;-56
2023/03/29 07:01:44;;;;;;;;;;;;;;;5.96;68.08;98168.41;5079045;28;19947;-57
2023/03/29 07:04:21;;;;;;;;;;;;;;;6.06;67.72;98173.75;5090086;28;20434;-56
2023/03/29 07:07:18;;;;;;;;;;;;;;;5.95;67.72;98177.56;5089807;28;20293;-58
2023/03/29 07:09:52;;;;;;;;;;;;;;;6.09;67.50;98175.91;5075442;28;20285;-56
2023/03/29 07:12:41;;;;;;;;;;;;;;;6.31;67.10;98183.66;5092961;28;20439;-56
2023/03/29 07:15:10;;;;;;;;;;;;;;;6.28;67.20;98185.03;5084893;28;19944;-56
2023/03/29 07:18:04;;;;;;;;;;;;;;;6.39;66.60;98182.25;5070748;28;19928;-56
2023/03/29 07:20:34;;;;;;;;;;;;;;;6.48;66.68;98176.00;5089639;28;19990;-57
2023/03/29 07:23:06;;;;;;;;;;;;;;;6.58;66.11;98185.94;5091129;28;19935;-57
2023/03/29 07:25:35;;;;;;;;;;;;;;;6.52;65.63;98181.66;5087041;28;19924;-57
2023/03/29 07:28:03;;;;;;;;;;;;;;;6.45;66.25;98181.97;5084569;28;19925;-56
2023/03/29 07:30:32;;;;;;;;;;;;;;;6.62;65.79;98186.22;5080823;28;20041;-56
2023/03/29 07:33:15;;;;;;;;;;;;;;;6.63;66.00;98185.91;5083925;28;20466;-58
2023/03/29 07:35:51;;;;;;;;;;;;;;;6.74;65.59;98183.97;5085120;28;19932;-57
2023/03/29 07:38:22;;;;;;;;;;;;;;;6.81;65.46;98185.25;5087658;28;20389;-58
2023/03/29 07:40:59;;;;;;;;;;;;;;;6.98;64.39;98184.09;5091340;28;19985;-60
2023/03/29 07:43:45;;;;;;;;;;;;;;;7.06;64.11;98181.59;5087901;28;20023;-56
2023/03/29 07:46:15;;;;;;;;;;;;;;;7.29;64.20;98190.84;5074737;28;19943;-56
2023/03/29 07:48:45;;;;;;;;;;;;;;;7.33;63.44;98181.09;5090268;28;19969;-57
2023/03/29 07:51:16;;;;;;;;;;;;;;;7.53;63.02;98182.03;5103902;27;19962;-56
2023/03/29 07:53:47;;;;;;;;;;;;;;;7.51;62.89;98178.78;5088306;28;19954;-59
2023/03/29 07:56:44;;;;;;;;;;;;;;;7.84;62.56;98179.81;5077007;28;19982;-57
2023/03/29 07:59:17;;;;;;;;;;;;;;;7.68;62.38;98171.06;5088589;28;20373;-56
2023/03/29 08:01:52;;;;;;;;;;;;;;;6.88;62.04;97987.00;5094132;28;19924;-57
2023/03/29 08:04:32;;;;;;;;;;;;;;;8.10;60.65;98172.22;5101545;27;19939;-58
2023/03/29 08:07:24;;;;;;;;;;;;;;;8.21;61.60;98175.63;5078331;28;19954;-58
2023/03/29 08:10:12;;;;;;;;;;;;;;;8.20;60.34;98172.09;5087902;28;19931;-57
2023/03/29 08:13:03;;;;;;;;;;;;;;;8.23;60.19;98176.94;5077134;28;19924;-60
2023/03/29 08:15:44;;;;;;;;;;;;;;;8.35;59.94;98180.03;5082855;28;19924;-62
2023/03/29 08:18:23;;;;;;;;;;;;;;;8.38;60.44;98174.06;5103490;27;19934;-58
2023/03/29 08:20:51;;;;;;;;;;;;;;;8.29;60.33;98169.56;5091839;28;19928;-58
2023/03/29 08:23:21;;;;;;;;;;;;;;;8.31;60.66;98173.59;5090102;28;19927;-57
2023/03/29 08:26:01;;;;;;;;;;;;;;;8.59;59.79;98173.81;5107826;28;19959;-57
2023/03/29 08:28:29;;;;;;;;;;;;;;;8.91;59.19;98175.78;5087293;28;19932;-60
2023/03/29 08:30:59;;;;;;;;;;;;;;;9.16;57.97;98182.72;5103340;27;20017;-57
2023/03/29 08:33:29;;;;;;;;;;;;;;;9.21;58.05;98181.81;5081077;28;20385;-61
2023/03/29 08:36:16;;;;;;;;;;;;;;;9.47;56.50;98174.06;5080487;28;19943;-57
2023/03/29 08:38:46;;;;;;;;;;;;;;;9.61;55.72;98169.50;5106242;28;20019;-58
2023/03/29 08:41:19;;;;;;;;;;;;;;;9.44;55.86;98162.75;5093939;28;20508;-64
2023/03/29 08:43:50;;;;;;;;;;;;;;;9.39;55.17;98170.97;5093518;28;19928;-60
2023/03/29 08:46:27;;;;;;;;;;;;;;;9.39;55.67;98160.09;5076512;28;20005;-61
2023/03/29 08:49:09;;;;;;;;;;;;;;;9.57;55.97;98165.78;5081792;28;20062;-58
2023/03/29 08:51:38;;;;;;;;;;;;;;;9.74;55.67;98165.19;5090011;28;19924;-62
2023/03/29 08:54:10;;;;;;;;;;;;;;;9.89;55.12;98173.06;5087390;28;19928;-58
2023/03/29 08:56:58;;;;;;;;;;;;;;;9.74;54.86;98168.72;5088106;28;20065;-58
2023/03/29 08:59:30;;;;;;;;;;;;;;;9.91;54.03;98160.00;5088970;28;19928;-60
2023/03/29 09:02:00;;;;;;;;;;;;;;;9.87;54.80;98169.84;5081249;28;19932;-57
2023/03/29 09:04:29;;;;;;;;;;;;;;;9.84;54.83;98167.72;5066404;28;20443;-59
2023/03/29 09:07:32;;;;;;;;;;;;;;;9.81;54.53;98165.63;5070856;28;20339;-58
2023/03/29 09:10:09;;;;;;;;;;;;;;;9.82;54.47;98164.50;5103221;28;19971;-57
2023/03/29 09:12:42;;;;;;;;;;;;;;;10.02;55.25;98160.63;5082929;28;19924;-57
2023/03/29 09:15:14;;;;;;;;;;;;;;;10.23;54.15;98172.69;5084482;28;19928;-59
2023/03/29 09:17:52;;;;;;;;;;;;;;;10.05;53.62;98041.38;5080402;28;19971;-58
2023/03/29 09:20:25;;;;;;;;;;;;;;;11.03;52.25;98163.09;5104921;28;19979;-62
2023/03/29 09:22:57;;;;;;;;;;;;;;;11.28;52.58;98159.72;5088577;28;19928;-62
2023/03/29 09:25:42;;;;;;;;;;;;;;;11.71;50.61;98145.59;5108401;28;19931;-57
2023/03/29 09:28:21;;;;;;;;;;;;;;;11.81;48.55;98141.78;5100503;28;19942;-57
2023/03/29 09:30:55;;;;;;;;;;;;;;;12.18;48.87;98145.97;5087548;28;19969;-61
2023/03/29 09:33:24;;;;;;;;;;;;;;;12.26;46.54;98147.13;5091194;28;19928;-59
2023/03/29 09:36:05;;;;;;;;;;;;;;;12.21;47.33;98137.19;5092991;28;19931;-61
2023/03/29 09:38:35;;;;;;;;;;;;;;;12.11;46.47;98136.66;5094260;28;19928;-57
2023/03/29 09:41:06;;;;;;;;;;;;;;;11.96;46.99;98144.13;5086637;28;19929;-58
2023/03/29 09:43:35;;;;;;;;;;;;;;;11.81;46.92;98141.78;5086783;28;19927;-58
2023/03/29 09:46:06;;;;;;;;;;;;;;;11.65;46.70;98138.69;5090302;28;19961;-57
2023/03/29 09:48:36;;;;;;;;;;;;;;;11.43;47.06;98138.72;5094321;28;19976;-63
2023/03/29 09:51:04;;;;;;;;;;;;;;;11.30;47.12;98145.84;5092329;28;19995;-57
2023/03/29 09:53:32;;;;;;;;;;;;;;;11.32;47.47;98148.25;5092839;28;19949;-58
2023/03/29 09:56:14;;;;;;;;;;;;;;;11.37;47.87;98151.66;5089324;28;19945;-58
2023/03/29 09:58:51;;;;;;;;;;;;;;;11.48;47.37;98135.88;5108203;28;19946;-57
2023/03/29 10:01:20;;;;;;;;;;;;;;;11.49;47.26;98135.53;5099116;28;20429;-57
2023/03/29 10:03:51;;;;;;;;;;;;;;;11.54;47.73;98132.69;5093713;28;19950;-64
2023/03/29 10:06:20;;;;;;;;;;;;;;;11.71;46.69;98131.19;5089488;28;19931;-59
2023/03/29 10:08:53;;;;;;;;;;;;;;;11.90;46.76;98126.34;5101817;28;19990;-58
2023/03/29 10:11:31;;;;;;;;;;;;;;;11.87;46.19;98132.41;5091735;28;19964;-60
2023/03/29 10:14:03;;;;;;;;;;;;;;;11.92;46.57;98134.97;5094734;28;20029;-57
2023/03/29 10:16:33;;;;;;;;;;;;;;;11.73;45.92;98131.69;5089207;28;19935;-61
2023/03/29 10:19:07;;;;;;;;;;;;;;;11.70;46.19;98124.94;5090155;28;19928;-57
2023/03/29 10:21:34;;;;;;;;;;;;;;;11.64;46.43;98122.66;5094552;28;19924;-64
2023/03/29 10:24:02;;;;;;;;;;;;;;;11.71;46.25;98134.69;5092832;28;20022;-58
2023/03/29 10:26:33;;;;;;;;;;;;;;;11.81;45.86;98133.63;5094257;28;19934;-58
2023/03/29 10:29:02;;;;;;;;;;;;;;;11.74;46.00;98127.84;5095480;28;19973;-63
2023/03/29 10:31:31;;;;;;;;;;;;;;;11.65;46.82;98125.06;5091745;28;19924;-65
2023/03/29 10:34:01;;;;;;;;;;;;;;;11.76;46.33;98125.59;5103545;28;19924;-61
2023/03/29 10:36:29;;;;;;;;;;;;;;;11.80;46.51;98132.81;5091806;28;20309;-61
2023/03/29 10:38:58;;;;;;;;;;;;;;;11.87;46.34;98132.41;5094201;28;19924;-59
2023/03/29 10:41:26;;;;;;;;;;;;;;;11.88;46.50;98125.88;5094223;28;19935;-58
2023/03/29 10:43:55;;;;;;;;;;;;;;;11.86;46.26;98119.91;5091307;28;20373;-59
2023/03/29 10:46:23;;;;;;;;;;;;;;;11.93;46.57;98124.88;5092042;28;19936;-60
2023/03/29 10:48:51;;;;;;;;;;;;;;;11.93;46.60;98117.56;5089240;28;20380;-61
2023/03/29 10:51:19;;;;;;;;;;;;;;;11.80;46.47;98118.41;5090256;28;19931;-58
2023/03/29 10:53:47;;;;;;;;;;;;;;;11.90;45.67;98112.72;5089415;28;19924;-58
2023/03/29 10:56:23;;;;;;;;;;;;;;;11.86;45.79;98119.09;5088937;28;19924;-59
2023/03/29 10:58:59;;;;;;;;;;;;;;;11.95;45.64;98118.03;5089207;28;20379;-58
2023/03/29 11:01:29;;;;;;;;;;;;;;;12.09;45.44;98114.38;5082091;28;19924;-58
2023/03/29 11:04:00;;;;;;;;;;;;;;;12.29;45.20;98111.06;5088466;28;19935;-58
2023/03/29 11:06:29;;;;;;;;;;;;;;;12.42;45.17;98114.78;5088938;28;19925;-63
2023/03/29 11:08:58;;;;;;;;;;;;;;;12.47;45.13;98107.28;5093413;28;19994;-58
2023/03/29 11:11:39;;;;;;;;;;;;;;;12.56;44.92;98116.22;5092787;28;20369;-59
2023/03/29 11:14:12;;;;;;;;;;;;;;;12.52;44.74;98103.59;5108921;27;19932;-58
2023/03/29 11:16:41;;;;;;;;;;;;;;;12.80;44.55;98104.88;5087070;28;19924;-58
2023/03/29 11:19:27;;;;;;;;;;;;;;;12.82;44.40;98113.53;5084427;28;20416;-58
2023/03/29 11:21:56;;;;;;;;;;;;;;;12.72;44.25;98104.88;5089177;28;19924;-58
2023/03/29 11:24:28;;;;;;;;;;;;;;;12.68;44.23;98102.00;5090759;28;20394;-64
2023/03/29 11:26:59;;;;;;;;;;;;;;;12.66;44.41;98120.59;5092666;28;19931;-60
2023/03/29 11:29:28;;;;;;;;;;;;;;;12.69;44.15;98103.59;5089483;28;19932;-60
2023/03/29 11:31:58;;;;;;;;;;;;;;;12.70;44.49;98113.38;5090921;28;20409;-59
2023/03/29 11:34:28;;;;;;;;;;;;;;;12.72;44.81;98113.84;5093386;28;19924;-58
2023/03/29 11:36:57;;;;;;;;;;;;;;;12.81;45.16;98113.84;5093044;28;19930;-61
2023/03/29 11:39:28;;;;;;;;;;;;;;;12.90;44.89;98113.88;5060321;28;19925;-58
2023/03/29 11:41:56;;;;;;;;;;;;;;;12.90;45.04;98103.75;5058747;28;20374;-58
2023/03/29 11:44:24;;;;;;;;;;;;;;;12.98;44.70;98094.75;5042070;28;19929;-58
2023/03/29 11:46:54;;;;;;;;;;;;;;;12.92;44.44;98098.78;5045017;28;19952;-60
2023/03/29 11:49:25;;;;;;;;;;;;;;;13.06;45.27;98102.16;5050882;28;19940;-58
2023/03/29 11:51:54;;;;;;;;;;;;;;;13.13;44.45;98106.31;5050745;28;20390;-58
2023/03/29 11:54:24;;;;;;;;;;;;;;;13.20;44.47;98101.16;5052171;28;19929;-58
2023/03/29 11:56:52;;;;;;;;;;;;;;;13.16;44.55;98106.47;5044887;28;19928;-56
2023/03/29 11:59:21;;;;;;;;;;;;;;;13.05;44.57;98095.09;5050399;28;19924;-57
2023/03/29 12:01:49;;;;;;;;;;;;;;;13.16;44.79;98101.00;5054071;28;19929;-59
2023/03/29 12:04:21;;;;;;;;;;;;;;;13.24;44.89;98094.75;5045405;28;20444;-58
2023/03/29 12:06:51;;;;;;;;;;;;;;;13.40;43.83;98086.84;5047253;28;20301;-57
2023/03/29 12:09:23;;;;;;;;;;;;;;;13.43;43.94;98082.69;5047136;28;19928;-57
2023/03/29 12:11:52;;;;;;;;;;;;;;;13.49;44.89;98095.03;5051500;28;19929;-57
2023/03/29 12:14:20;;;;;;;;;;;;;;;13.39;45.42;98085.25;5049157;28;20297;-57
2023/03/29 12:19:37;;;;;;;;;;;;;;;13.21;45.08;98092.69;5078962;28;19956;-96
2023/03/29 12:22:16;;;;;;;;;;;;;;;13.06;45.56;98091.22;5085667;28;20027;-96
2023/03/29 12:24:47;;;;;;;;;;;;;;;12.97;46.10;98089.63;5090080;28;19925;-96
2023/03/29 12:27:20;;;;;;;;;;;;;;;13.15;46.68;98085.75;5084321;28;19925;-96
2023/03/29 12:29:58;;;;;;;;;;;;;;;13.38;45.88;98091.03;5061069;28;19924;-96
2023/03/29 12:32:31;;;;;;;;;;;;;;;13.47;46.40;98089.88;5056173;28;19924;-95
2023/03/29 12:35:42;;;;;;;;;;;;;;;13.69;45.77;98088.03;5051453;28;19924;-96
2023/03/29 12:38:29;;;;;;;;;;;;;;;13.60;45.42;98090.81;5071192;28;19931;-96
2023/03/29 12:41:40;;;;;;;;;;;;;;;13.68;46.64;98094.63;5061189;28;19944;-96
2023/03/29 12:44:29;;;;;;;;;;;;;;;13.92;45.47;98083.13;5025051;28;19925;-96
2023/03/29 12:47:17;;;;;;;;;;;;;;;14.05;45.58;98080.16;5078373;28;19924;-95
2023/03/29 12:49:46;;;;;;;;;;;;;;;14.11;45.05;98084.34;5081806;28;19928;-95
2023/03/29 12:52:21;;;;;;;;;;;;;;;14.14;45.35;98083.66;5072656;28;20023;-93
2023/03/29 12:54:53;;;;;;;;;;;;;;;14.03;45.44;98073.44;5039398;28;19978;-95
2023/03/29 12:57:26;;;;;;;;;;;;;;;14.12;46.36;98075.00;5042075;28;19983;-96
2023/03/29 12:59:56;;;;;;;;;;;;;;;14.02;46.70;98066.38;5073854;28;20023;-96
2023/03/29 13:02:27;;;;;;;;;;;;;;;14.22;46.53;98065.63;5057629;28;19935;-93
2023/03/29 13:04:59;;;;;;;;;;;;;;;14.29;46.53;98067.81;5067085;28;20476;-95
2023/03/29 13:07:30;;;;;;;;;;;;;;;14.11;47.01;98069.84;5081400;28;19928;-95
2023/03/29 13:10:00;;;;;;;;;;;;;;;14.10;47.53;98063.59;5061627;28;20001;-93
2023/03/29 13:12:29;;;;;;;;;;;;;;;13.96;47.74;98064.97;5072118;28;19992;-95
2023/03/29 13:15:00;;;;;;;;;;;;;;;14.11;48.58;98053.44;5071977;28;19935;-95
2023/03/29 13:17:32;;;;;;;;;;;;;;;13.97;48.01;98053.72;5088735;28;19908;-96
2023/03/29 13:20:22;;;;;;;;;;;;;;;13.93;49.03;98052.75;5080788;28;19923;-94
2023/03/29 13:22:54;;;;;;;;;;;;;;;13.84;49.57;98043.81;5066774;28;19929;-57
2023/03/29 13:25:30;;;;;;;;;;;;;;;13.80;49.43;98045.63;5067357;28;20306;-57
2023/03/29 13:28:00;;;;;;;;;;;;;;;13.76;49.67;98048.19;5067835;28;20352;-57